createdAt,value
2019-04-20T00:00:30.510Z,13.35
2019-04-20T00:03:01.357Z,13.08
2019-04-20T00:05:32.958Z,8.80
2019-04-20T00:08:08.985Z,7.15
2019-04-20T00:10:46.562Z,9.70
2019-04-20T00:13:19.398Z,7.87
2019-04-20T00:15:38.974Z,8.23
2019-04-20T00:18:11.511Z,6.72
2019-04-20T00:20:43.870Z,6.47
2019-04-20T00:23:22.851Z,7.33
2019-04-20T00:26:14.668Z,9.90
2019-04-20T00:28:55.958Z,5.45
2019-04-20T00:31:27.953Z,8.50
2019-04-20T00:33:54.984Z,5.78
2019-04-20T00:36:16.084Z,5.40
2019-04-20T00:38:52.940Z,7.42
2019-04-20T00:41:21.207Z,4.78
2019-04-20T00:43:51.177Z,4.28
2019-04-20T00:46:29.231Z,5.55
2019-04-20T00:49:01.586Z,6.17
2019-04-20T00:51:39.562Z,5.70
2019-04-20T00:53:58.727Z,5.55
2019-04-20T00:56:28.845Z,6.87
2019-04-20T00:59:12.964Z,7.22
2019-04-20T01:01:53.492Z,8.50
2019-04-20T01:04:19.863Z,4.70
2019-04-20T01:06:55.074Z,4.72
2019-04-20T01:09:18.092Z,5.35
2019-04-20T01:11:49.756Z,6.53
2019-04-20T01:14:30.505Z,7.30
2019-04-20T01:16:59.986Z,10.05
2019-04-20T01:19:23.455Z,4.75
2019-04-20T01:21:59.990Z,4.65
2019-04-20T01:24:31.370Z,5.17
2019-04-20T01:27:00.785Z,5.75
2019-04-20T01:29:38.417Z,5.58
2019-04-20T01:32:12.506Z,4.78
2019-04-20T01:34:45.922Z,4.35
2019-04-20T01:37:21.223Z,3.85
2019-04-20T01:39:44.368Z,4.53
2019-04-20T01:42:09.323Z,5.50
2019-04-20T01:44:45.341Z,7.22
2019-04-20T01:47:13.355Z,6.40
2019-04-20T01:49:47.785Z,7.12
2019-04-20T01:52:22.999Z,7.35
2019-04-20T01:55:14.294Z,7.53
2019-04-20T01:58:00.157Z,9.63
2019-04-20T02:00:32.778Z,9.50
2019-04-20T02:03:08.205Z,10.38
2019-04-20T02:05:40.039Z,10.20
2019-04-20T02:08:14.505Z,11.38
2019-04-20T02:10:48.604Z,13.60
2019-04-20T02:13:13.021Z,11.80
2019-04-20T02:15:49.441Z,10.95
2019-04-20T02:18:29.697Z,12.40
2019-04-20T02:21:08.241Z,11.43
2019-04-20T02:23:31.802Z,11.95
2019-04-20T02:25:50.418Z,10.75
2019-04-20T02:28:37.217Z,10.85
2019-04-20T02:31:32.564Z,11.60
2019-04-20T02:34:03.892Z,9.95
2019-04-20T02:36:51.588Z,11.05
2019-04-20T02:39:33.016Z,8.88
2019-04-20T02:42:08.339Z,7.78
2019-04-20T02:44:36.827Z,6.72
2019-04-20T02:46:57.488Z,6.80
2019-04-20T02:49:40.366Z,7.47
2019-04-20T02:52:13.479Z,8.48
2019-04-20T02:54:26.049Z,6.05
2019-04-20T02:59:56.272Z,8.58
2019-04-20T03:01:50.213Z,5.40
2019-04-20T03:04:19.230Z,8.18
2019-04-20T03:06:54.982Z,6.67
2019-04-20T03:09:32.445Z,8.25
2019-04-20T03:14:30.328Z,7.47
2019-04-20T03:17:09.894Z,11.47
2019-04-20T03:19:31.368Z,11.65
2019-04-20T03:22:19.236Z,7.72
2019-04-20T03:25:03.914Z,6.62
2019-04-20T03:27:14.589Z,7.37
2019-04-20T03:35:05.294Z,8.03
2019-04-20T03:39:56.740Z,6.40
2019-04-20T03:42:14.208Z,5.17
2019-04-20T03:44:51.247Z,4.92
2019-04-20T03:47:28.888Z,4.47
2019-04-20T03:50:10.506Z,6.05
2019-04-20T03:52:43.557Z,5.65
2019-04-20T03:55:26.288Z,4.90
2019-04-20T03:58:03.445Z,5.20
2019-04-20T04:00:43.412Z,4.67
2019-04-20T04:03:31.761Z,7.45
2019-04-20T04:05:54.822Z,5.80
2019-04-20T04:08:17.060Z,9.63
2019-04-20T04:10:58.491Z,7.97
2019-04-20T04:13:14.554Z,5.60
2019-04-20T04:15:53.270Z,4.25
2019-04-20T04:18:27.257Z,9.30
2019-04-20T04:20:59.029Z,4.33
2019-04-20T04:23:40.912Z,8.05
2019-04-20T04:26:10.379Z,5.97
2019-04-20T04:28:40.714Z,4.83
2019-04-20T04:31:22.864Z,6.08
2019-04-20T04:33:55.824Z,6.58
2019-04-20T04:36:16.610Z,4.15
2019-04-20T04:39:11.394Z,5.70
2019-04-20T04:41:27.086Z,7.12
2019-04-20T04:43:53.864Z,7.72
2019-04-20T04:46:10.223Z,4.62
2019-04-20T04:48:44.758Z,5.83
2019-04-20T04:51:18.483Z,4.30
2019-04-20T04:53:52.927Z,6.60
2019-04-20T04:56:18.876Z,4.87
2019-04-20T04:58:47.718Z,4.67
2019-04-20T05:01:22.380Z,4.60
2019-04-20T05:04:14.608Z,4.12
2019-04-20T05:06:35.902Z,5.10
2019-04-20T05:08:58.529Z,6.63
2019-04-20T05:11:26.276Z,9.93
2019-04-20T05:14:03.090Z,4.62
2019-04-20T05:16:45.145Z,4.42
2019-04-20T05:19:18.985Z,6.65
2019-04-20T05:24:33.754Z,6.08
2019-04-20T05:27:30.183Z,10.63
2019-04-20T05:29:41.393Z,7.33
2019-04-20T05:32:19.688Z,3.45
2019-04-20T05:35:12.288Z,4.53
2019-04-20T05:37:41.425Z,5.10
2019-04-20T05:40:10.430Z,4.97
2019-04-20T05:42:42.983Z,6.00
2019-04-20T05:45:11.778Z,4.53
2019-04-20T05:47:45.504Z,3.12
2019-04-20T05:50:16.621Z,5.17
2019-04-20T05:52:56.304Z,9.18
2019-04-20T05:55:20.821Z,3.65
2019-04-20T06:00:37.434Z,5.33
2019-04-20T06:03:04.120Z,7.72
2019-04-20T06:05:45.932Z,5.78
2019-04-20T06:08:09.380Z,3.65
2019-04-20T06:10:45.515Z,5.65
2019-04-20T06:13:22.478Z,5.25
2019-04-20T06:16:14.195Z,4.85
2019-04-20T06:18:51.696Z,5.87
2019-04-20T06:21:34.024Z,7.37
2019-04-20T06:24:03.330Z,6.72
2019-04-20T06:29:02.887Z,5.37
2019-04-20T06:31:35.634Z,5.22
2019-04-20T06:34:30.145Z,3.27
2019-04-20T06:39:46.504Z,7.05
2019-04-20T06:47:13.548Z,3.58
2019-04-20T06:49:51.606Z,10.70
2019-04-20T06:52:25.970Z,9.43
2019-04-20T06:57:40.768Z,4.97
2019-04-20T07:02:48.338Z,6.83
2019-04-20T07:05:19.096Z,6.40
2019-04-20T07:12:44.979Z,7.95
2019-04-20T07:15:18.980Z,6.20
2019-04-20T07:20:52.578Z,6.85
2019-04-20T07:23:23.762Z,3.50
2019-04-20T07:25:49.636Z,5.70
2019-04-20T07:28:24.494Z,12.65
2019-04-20T07:31:01.824Z,7.05
2019-04-20T07:33:24.342Z,7.87
2019-04-20T07:35:50.851Z,6.72
2019-04-20T07:38:40.206Z,6.40
2019-04-20T07:40:53.715Z,9.53
2019-04-20T07:43:25.549Z,8.68
2019-04-20T07:46:04.203Z,9.18
2019-04-20T07:48:26.186Z,10.48
2019-04-20T07:50:55.583Z,8.23
2019-04-20T07:53:30.274Z,16.60
2019-04-20T07:56:04.675Z,20.48
2019-04-20T07:58:30.502Z,11.15
2019-04-20T08:01:15.191Z,14.25
2019-04-20T08:06:21.334Z,9.60
2019-04-20T08:08:57.147Z,11.50
2019-04-20T08:11:38.005Z,13.20
2019-04-20T08:14:11.201Z,11.97
2019-04-20T08:16:46.339Z,17.92
2019-04-20T08:19:13.487Z,18.25
2019-04-20T08:21:40.847Z,20.32
2019-04-20T08:24:13.265Z,21.68
2019-04-20T08:26:32.591Z,16.45
2019-04-20T08:29:09.177Z,11.18
2019-04-20T08:31:49.047Z,14.03
2019-04-20T08:37:03.176Z,15.30
2019-04-20T08:39:46.345Z,14.55
2019-04-20T08:42:06.318Z,15.08
2019-04-20T08:44:54.751Z,16.70
2019-04-20T08:47:33.689Z,17.67
2019-04-20T08:49:53.810Z,14.15
2019-04-20T08:52:39.252Z,14.60
2019-04-20T08:54:43.330Z,11.93
2019-04-20T08:57:03.193Z,16.75
2019-04-20T08:59:33.942Z,10.88
2019-04-20T09:02:10.312Z,10.95
2019-04-20T09:04:46.877Z,13.95
2019-04-20T09:07:17.603Z,14.95
2019-04-20T09:10:11.898Z,14.63
2019-04-20T09:12:32.153Z,10.08
2019-04-20T09:14:46.297Z,16.45
2019-04-20T09:17:27.134Z,11.97
2019-04-20T09:20:00.008Z,13.00
2019-04-20T09:22:58.265Z,13.18
2019-04-20T09:25:49.757Z,11.80
2019-04-20T09:28:18.901Z,12.98
2019-04-20T09:30:51.988Z,8.85
2019-04-20T09:36:24.243Z,8.53
2019-04-20T09:39:08.726Z,9.90
2019-04-20T09:41:59.866Z,10.43
2019-04-20T09:44:20.066Z,9.50
2019-04-20T09:46:55.880Z,11.50
2019-04-20T09:49:37.512Z,10.03
2019-04-20T09:52:06.850Z,10.55
2019-04-20T09:54:45.580Z,9.50
2019-04-20T09:57:22.755Z,10.32
2019-04-20T09:59:50.074Z,9.95
2019-04-20T10:02:07.714Z,11.70
2019-04-20T10:04:33.488Z,8.25
2019-04-20T10:07:11.201Z,7.10
2019-04-20T10:09:39.870Z,7.83
2019-04-20T10:12:07.940Z,7.95
2019-04-20T10:14:38.480Z,6.75
2019-04-20T10:17:09.756Z,7.85
2019-04-20T10:19:41.823Z,9.25
2019-04-20T10:22:13.081Z,7.90
2019-04-20T10:24:45.858Z,11.55
2019-04-20T10:27:15.136Z,10.53
2019-04-20T10:29:45.844Z,6.60
2019-04-20T10:32:17.560Z,11.33
2019-04-20T10:34:48.556Z,17.15
2019-04-20T10:37:21.742Z,10.45
2019-04-20T10:42:22.316Z,8.58
2019-04-20T10:44:57.681Z,5.25
2019-04-20T10:47:27.344Z,9.35
2019-04-20T10:49:58.810Z,7.92
2019-04-20T10:52:30.079Z,6.20
2019-04-20T10:55:00.659Z,4.30
2019-04-20T10:57:31.256Z,5.47
2019-04-20T11:00:01.813Z,5.80
2019-04-20T11:02:35.016Z,5.15
2019-04-20T11:05:06.630Z,4.10
2019-04-20T11:07:36.892Z,7.33
2019-04-20T11:10:16.248Z,3.83
2019-04-20T11:15:10.463Z,6.67
2019-04-20T11:17:41.683Z,6.22
2019-04-20T11:20:12.973Z,4.75
2019-04-20T11:22:44.258Z,10.32
2019-04-20T11:25:16.592Z,4.00
2019-04-20T11:27:47.982Z,4.72
2019-04-20T11:30:18.501Z,5.55
2019-04-20T11:32:48.922Z,7.50
2019-04-20T11:35:25.591Z,6.08
2019-04-20T11:37:51.265Z,4.08
2019-04-20T11:40:21.413Z,4.97
2019-04-20T11:42:51.483Z,5.05
2019-04-20T11:45:22.595Z,4.28
2019-04-20T11:47:53.737Z,4.37
2019-04-20T11:50:25.205Z,4.08
2019-04-20T11:52:57.198Z,5.10
2019-04-20T11:55:28.546Z,4.17
2019-04-20T11:57:58.633Z,3.35
2019-04-20T12:00:52.238Z,4.62
2019-04-20T12:03:24.812Z,3.90
2019-04-20T12:05:54.540Z,3.58
2019-04-20T12:08:22.967Z,6.47
2019-04-20T12:10:57.755Z,3.50
2019-04-20T12:13:26.775Z,5.70
2019-04-20T12:15:57.033Z,4.42
2019-04-20T12:18:27.615Z,3.65
2019-04-20T12:20:58.883Z,3.77
2019-04-20T12:23:29.005Z,4.45
2019-04-20T12:25:59.791Z,6.75
2019-04-20T12:28:29.982Z,3.33
2019-04-20T12:31:06.393Z,4.53
2019-04-20T12:33:32.597Z,5.60
2019-04-20T12:36:03.155Z,3.60
2019-04-20T12:38:33.290Z,3.92
2019-04-20T12:41:04.847Z,5.17
2019-04-20T12:43:36.018Z,3.98
2019-04-20T12:46:07.536Z,5.28
2019-04-20T12:48:37.804Z,7.15
2019-04-20T12:51:07.905Z,4.40
2019-04-20T12:53:38.366Z,5.35
2019-04-20T12:56:08.741Z,4.45
2019-04-20T12:58:41.803Z,5.42
2019-04-20T13:01:12.083Z,4.33
2019-04-20T13:03:43.485Z,4.97
2019-04-20T13:06:16.187Z,7.40
2019-04-20T13:08:51.857Z,4.60
2019-04-20T13:11:24.629Z,8.85
2019-04-20T13:14:08.358Z,5.10
2019-04-20T13:16:39.012Z,5.08
2019-04-20T13:19:09.287Z,5.17
2019-04-20T13:21:40.891Z,3.95
2019-04-20T13:24:11.417Z,5.70
2019-04-20T13:26:42.793Z,8.68
2019-04-20T13:29:13.014Z,4.67
2019-04-20T13:31:43.877Z,5.75
2019-04-20T13:34:15.096Z,8.58
2019-04-20T13:36:46.198Z,6.45
2019-04-20T13:39:16.542Z,4.67
2019-04-20T13:41:57.751Z,3.77
2019-04-20T13:44:18.004Z,3.92
2019-04-20T13:46:47.486Z,3.50
2019-04-20T13:49:17.047Z,5.60
2019-04-20T13:51:46.664Z,4.62
2019-04-20T13:54:20.560Z,9.33
2019-04-20T13:56:49.025Z,5.55
2019-04-20T13:59:25.832Z,5.33
2019-04-20T14:02:00.098Z,5.87
2019-04-20T14:04:32.615Z,5.65
2019-04-20T14:07:03.637Z,5.07
2019-04-20T14:09:35.268Z,5.25
2019-04-20T14:12:16.205Z,5.33
2019-04-20T14:14:37.225Z,5.85
2019-04-20T14:17:07.572Z,7.83
2019-04-20T14:19:37.250Z,8.20
2019-04-20T14:22:08.186Z,6.08
2019-04-20T14:24:39.076Z,5.17
2019-04-20T14:27:09.040Z,5.35
2019-04-20T14:29:39.000Z,6.28
2019-04-20T14:32:10.233Z,5.92
2019-04-20T14:34:40.825Z,7.15
2019-04-20T14:37:10.984Z,6.35
2019-04-20T14:39:40.686Z,5.62
2019-04-20T14:42:23.316Z,6.67
2019-04-20T14:44:41.726Z,7.35
2019-04-20T14:47:11.910Z,4.12
2019-04-20T14:49:42.904Z,4.50
2019-04-20T14:52:13.505Z,4.95
2019-04-20T14:54:43.617Z,4.90
2019-04-20T14:57:13.746Z,7.90
2019-04-20T14:59:45.413Z,5.97
2019-04-20T15:02:17.441Z,4.80
2019-04-20T15:04:47.572Z,4.80
2019-04-20T15:07:18.570Z,3.85
2019-04-20T15:09:48.830Z,7.37
2019-04-20T15:12:21.331Z,4.85
2019-04-20T15:14:52.442Z,3.70
2019-04-20T15:17:29.821Z,4.67
2019-04-20T15:20:03.953Z,4.58
2019-04-20T15:22:41.662Z,3.95
2019-04-20T15:25:11.732Z,4.15
2019-04-20T15:27:44.718Z,4.67
2019-04-20T15:30:14.031Z,4.85
2019-04-20T15:32:44.999Z,3.52
2019-04-20T15:35:19.094Z,4.45
2019-04-20T15:37:47.107Z,3.95
2019-04-20T15:40:17.330Z,8.70
2019-04-20T15:42:56.661Z,6.72
2019-04-20T15:45:19.085Z,6.90
2019-04-20T15:47:50.098Z,9.00
2019-04-20T15:50:20.267Z,5.75
2019-04-20T15:52:52.814Z,4.08
2019-04-20T15:55:27.454Z,4.80
2019-04-20T15:57:53.446Z,3.85
2019-04-20T16:00:24.470Z,10.10
2019-04-20T16:02:57.117Z,4.70
2019-04-20T16:05:40.921Z,5.20
2019-04-20T16:08:30.273Z,4.25
2019-04-20T16:11:04.581Z,7.47
2019-04-20T16:13:39.693Z,4.58
2019-04-20T16:16:05.859Z,5.05
2019-04-20T16:18:37.006Z,6.53
2019-04-20T16:21:13.226Z,5.92
2019-04-20T16:23:40.835Z,5.10
2019-04-20T16:26:19.689Z,5.20
2019-04-20T16:28:50.111Z,5.12
2019-04-20T16:31:22.591Z,3.92
2019-04-20T16:33:56.553Z,4.20
2019-04-20T16:36:26.165Z,4.20
2019-04-20T16:38:57.279Z,2.95
2019-04-20T16:41:28.419Z,5.12
2019-04-20T16:43:59.406Z,4.20
2019-04-20T16:46:30.112Z,5.67
2019-04-20T16:49:00.851Z,4.28
2019-04-20T16:51:31.153Z,3.37
2019-04-20T16:54:01.581Z,3.60
2019-04-20T16:56:32.802Z,5.90
2019-04-20T16:59:07.611Z,5.58
2019-04-20T17:01:35.262Z,3.62
2019-04-20T17:04:10.771Z,4.72
2019-04-20T17:06:38.170Z,3.95
2019-04-20T17:09:09.430Z,7.83
2019-04-20T17:11:39.755Z,4.92
2019-04-20T17:14:10.425Z,5.10
2019-04-20T17:16:40.104Z,4.60
2019-04-20T17:19:09.954Z,4.28
2019-04-20T17:21:40.283Z,5.05
2019-04-20T17:24:11.166Z,4.90
2019-04-20T17:26:45.449Z,5.12
2019-04-20T17:29:19.955Z,6.85
2019-04-20T17:31:57.812Z,4.40
2019-04-20T17:34:43.898Z,4.53
2019-04-20T17:37:00.512Z,3.52
2019-04-20T17:39:39.785Z,5.30
2019-04-20T17:42:16.888Z,4.72
2019-04-20T17:44:46.991Z,4.12
2019-04-20T17:47:29.142Z,6.50
2019-04-20T17:49:58.709Z,5.10
2019-04-20T17:52:27.822Z,6.40
2019-04-20T17:54:41.128Z,5.12
2019-04-20T17:57:11.148Z,5.37
2019-04-20T17:59:44.827Z,5.78
2019-04-20T18:02:33.403Z,5.50
2019-04-20T18:05:20.421Z,4.35
2019-04-20T18:07:44.850Z,4.92
2019-04-20T18:10:17.466Z,3.87
2019-04-20T18:12:37.412Z,5.53
2019-04-20T18:15:20.548Z,4.65
2019-04-20T18:17:56.268Z,5.87
2019-04-20T18:20:30.535Z,4.87
2019-04-20T18:23:02.387Z,6.03
2019-04-20T18:25:59.122Z,6.03
2019-04-20T18:28:19.724Z,6.55
2019-04-20T18:30:48.854Z,5.83
2019-04-20T18:33:13.671Z,7.53
2019-04-20T18:35:47.147Z,7.45
2019-04-20T18:38:17.039Z,5.17
2019-04-20T18:40:58.176Z,7.62
2019-04-20T18:43:22.713Z,6.62
2019-04-20T18:49:39.843Z,4.42
2019-04-20T18:51:57.742Z,5.10
2019-04-20T18:54:31.795Z,4.15
2019-04-20T18:57:01.668Z,5.85
2019-04-20T18:59:41.743Z,5.92
2019-04-20T19:02:06.740Z,5.25
2019-04-20T19:04:37.672Z,5.47
2019-04-20T19:07:10.001Z,5.67
2019-04-20T19:09:41.070Z,5.65
2019-04-20T19:12:14.613Z,5.30
2019-04-20T19:15:19.728Z,5.00
2019-04-20T19:17:59.463Z,4.67
2019-04-20T19:20:20.302Z,6.50
2019-04-20T19:25:27.021Z,5.00
2019-04-20T19:27:56.585Z,5.78
2019-04-20T19:30:35.460Z,5.30
2019-04-20T19:33:17.571Z,7.53
2019-04-20T19:35:41.565Z,5.78
2019-04-20T19:38:10.361Z,6.78
2019-04-20T19:40:45.411Z,5.05
2019-04-20T19:43:15.746Z,6.83
2019-04-20T19:46:07.449Z,6.12
2019-04-20T19:48:23.003Z,4.72
2019-04-20T19:51:05.609Z,5.97
2019-04-20T19:53:30.364Z,4.83
2019-04-20T19:56:00.064Z,7.22
2019-04-20T19:58:33.180Z,9.53
2019-04-20T20:00:55.803Z,4.75
2019-04-20T20:03:25.939Z,5.35
2019-04-20T20:05:58.237Z,6.42
2019-04-20T20:08:31.609Z,8.23
2019-04-20T20:11:02.798Z,5.95
2019-04-20T20:13:40.089Z,4.90
2019-04-20T20:16:10.466Z,5.67
2019-04-20T20:18:52.143Z,6.08
2019-04-20T20:21:20.012Z,5.15
2019-04-20T20:23:39.323Z,7.62
2019-04-20T20:26:22.020Z,4.90
2019-04-20T20:28:48.755Z,4.53
2019-04-20T20:31:27.529Z,5.67
2019-04-20T20:33:58.990Z,4.65
2019-04-20T20:36:21.334Z,6.65
2019-04-20T20:38:52.102Z,4.67
2019-04-20T20:41:27.942Z,5.20
2019-04-20T20:44:02.852Z,5.05
2019-04-20T20:46:32.818Z,5.90
2019-04-20T20:49:25.432Z,5.62
2019-04-20T20:51:49.839Z,7.62
2019-04-20T20:54:09.456Z,6.65
2019-04-20T20:56:35.626Z,5.85
2019-04-20T20:59:11.225Z,5.72
2019-04-20T21:01:48.131Z,6.40
2019-04-20T21:04:10.030Z,6.67
2019-04-20T21:06:40.344Z,7.28
2019-04-20T21:09:10.516Z,6.40
2019-04-20T21:11:42.623Z,9.95
2019-04-20T21:14:19.866Z,6.25
2019-04-20T21:16:53.489Z,6.10
2019-04-20T21:19:28.464Z,8.60
2019-04-20T21:21:55.680Z,6.33
2019-04-20T21:24:39.910Z,7.80
2019-04-20T21:27:14.896Z,4.22
2019-04-20T21:29:47.478Z,5.97
2019-04-20T21:32:16.545Z,4.78
2019-04-20T21:34:53.567Z,12.58
2019-04-20T21:37:20.087Z,5.33
2019-04-20T21:39:55.383Z,5.85
2019-04-20T21:42:24.571Z,12.40
2019-04-20T21:45:05.847Z,5.67
2019-04-20T21:47:31.473Z,7.10
2019-04-20T21:50:18.726Z,4.10
2019-04-20T21:52:37.295Z,6.53
2019-04-20T21:55:01.063Z,4.25
2019-04-20T21:57:37.375Z,7.33
2019-04-20T22:00:10.066Z,9.33
2019-04-20T22:02:44.666Z,6.15
2019-04-20T22:05:11.422Z,6.12
2019-04-20T22:07:41.695Z,5.50
2019-04-20T22:10:21.372Z,7.33
2019-04-20T22:12:48.982Z,7.22
2019-04-20T22:15:23.593Z,4.90
2019-04-20T22:17:48.554Z,5.55
2019-04-20T22:20:28.955Z,4.45
2019-04-20T22:23:02.960Z,6.15
2019-04-20T22:25:37.938Z,7.42
2019-04-20T22:27:57.397Z,4.87
2019-04-20T22:30:26.245Z,4.83
2019-04-20T22:32:59.559Z,5.97
2019-04-20T22:35:31.201Z,6.33
2019-04-20T22:38:19.251Z,5.97
2019-04-20T22:40:49.749Z,5.58
2019-04-20T22:43:26.121Z,6.90
2019-04-20T22:45:53.918Z,5.00
2019-04-20T22:48:27.070Z,8.25
2019-04-20T22:51:17.817Z,5.08
2019-04-20T22:53:44.185Z,5.30
2019-04-20T22:56:18.720Z,7.97
2019-04-20T22:58:43.252Z,4.92
2019-04-20T23:01:15.054Z,5.05
2019-04-20T23:03:36.853Z,3.92
2019-04-20T23:06:06.999Z,4.97
2019-04-20T23:08:38.296Z,5.20
2019-04-20T23:11:14.886Z,5.67
2019-04-20T23:13:43.672Z,5.72
2019-04-20T23:16:13.395Z,6.10
2019-04-20T23:18:44.797Z,5.30
2019-04-20T23:21:17.419Z,5.37
2019-04-20T23:23:46.551Z,8.15
2019-04-20T23:26:24.294Z,5.58
2019-04-20T23:28:52.526Z,8.00
2019-04-20T23:31:23.877Z,4.08
2019-04-20T23:33:53.928Z,3.55
2019-04-20T23:36:30.692Z,4.05
2019-04-20T23:38:59.216Z,4.78
2019-04-20T23:41:28.000Z,7.45
2019-04-20T23:44:04.036Z,5.80
2019-04-20T23:49:27.313Z,6.70
2019-04-20T23:52:09.775Z,6.03
2019-04-20T23:54:27.953Z,8.05
2019-04-20T23:56:55.698Z,6.83
2019-04-20T23:59:33.639Z,4.95
